createdAt,value
2017-05-19T00:02:44.195Z,20.25
2017-05-19T00:05:38.972Z,20.20
2017-05-19T00:08:33.784Z,20.14
2017-05-19T00:11:28.563Z,20.09
2017-05-19T00:17:18.190Z,20.04
2017-05-19T00:20:13.034Z,20.00
2017-05-19T00:23:07.882Z,19.96
2017-05-19T00:26:02.612Z,19.92
2017-05-19T00:28:57.528Z,19.88
2017-05-19T00:31:52.401Z,19.84
2017-05-19T00:34:47.379Z,19.81
2017-05-19T00:40:37.131Z,19.73
2017-05-19T00:43:31.932Z,19.69
2017-05-19T00:46:26.874Z,19.65
2017-05-19T00:49:21.731Z,19.61
2017-05-19T00:55:11.587Z,19.56
2017-05-19T00:58:06.424Z,19.51
2017-05-19T01:01:01.272Z,19.47
2017-05-19T01:03:56.277Z,19.42
2017-05-19T01:06:51.064Z,19.38
2017-05-19T01:09:46.066Z,19.35
2017-05-19T01:12:40.967Z,19.33
2017-05-19T01:15:35.831Z,19.30
2017-05-19T01:18:30.688Z,19.29
2017-05-19T01:21:25.627Z,19.26
2017-05-19T01:24:20.478Z,19.23
2017-05-19T01:27:15.531Z,19.21
2017-05-19T01:30:10.413Z,19.18
2017-05-19T01:33:05.241Z,19.14
2017-05-19T01:36:00.132Z,19.12
2017-05-19T01:38:55.002Z,19.10
2017-05-19T01:41:49.829Z,19.08
2017-05-19T01:44:44.714Z,19.07
2017-05-19T01:47:39.545Z,19.05
2017-05-19T01:50:34.354Z,19.02
2017-05-19T01:56:24.204Z,18.98
2017-05-19T01:59:19.178Z,18.96
2017-05-19T02:02:13.961Z,18.93
2017-05-19T02:05:08.851Z,18.90
2017-05-19T02:08:03.648Z,18.88
2017-05-19T02:10:58.528Z,18.85
2017-05-19T02:13:53.457Z,18.82
2017-05-19T02:16:48.379Z,18.80
2017-05-19T02:19:43.270Z,18.78
2017-05-19T02:22:38.193Z,18.76
2017-05-19T02:25:33.078Z,18.73
2017-05-19T02:28:27.967Z,18.70
2017-05-19T02:31:22.911Z,18.67
2017-05-19T02:34:17.832Z,18.64
2017-05-19T02:45:57.467Z,18.55
2017-05-19T02:48:52.358Z,18.51
2017-05-19T02:51:47.218Z,18.49
2017-05-19T02:54:42.167Z,18.46
2017-05-19T02:57:37.077Z,18.44
2017-05-19T03:00:31.946Z,18.42
2017-05-19T03:03:26.698Z,18.40
2017-05-19T03:06:21.641Z,18.38
2017-05-19T03:09:16.418Z,18.36
2017-05-19T03:12:11.212Z,18.34
2017-05-19T03:18:00.841Z,18.30
2017-05-19T03:20:55.771Z,18.27
2017-05-19T03:23:50.701Z,18.25
2017-05-19T03:26:45.554Z,18.23
2017-05-19T03:29:40.426Z,18.21
2017-05-19T03:32:35.250Z,18.20
2017-05-19T03:35:30.104Z,18.18
2017-05-19T03:38:25.031Z,18.17
2017-05-19T03:41:19.863Z,18.17
2017-05-19T03:44:14.788Z,18.17
2017-05-19T03:47:09.662Z,18.19
2017-05-19T03:50:04.536Z,18.18
2017-05-19T03:52:59.449Z,18.18
2017-05-19T03:55:54.655Z,18.17
2017-05-19T03:58:49.504Z,18.19
2017-05-19T04:01:44.412Z,18.19
2017-05-19T04:04:39.311Z,18.20
2017-05-19T04:07:34.166Z,18.22
2017-05-19T04:10:29.037Z,18.25
2017-05-19T04:13:23.928Z,18.28
2017-05-19T04:16:18.823Z,18.29
2017-05-19T04:19:13.661Z,18.31
2017-05-19T04:22:08.518Z,18.34
2017-05-19T04:25:03.392Z,18.37
2017-05-19T04:28:20.846Z,18.41
2017-05-19T04:31:08.690Z,18.48
2017-05-19T04:34:03.464Z,18.56
2017-05-19T04:36:58.316Z,18.62
2017-05-19T04:39:53.191Z,18.68
2017-05-19T04:42:48.164Z,18.74
2017-05-19T04:48:38.027Z,18.89
2017-05-19T04:57:22.780Z,19.28
2017-05-19T05:00:17.749Z,19.38
2017-05-19T05:03:12.662Z,19.50
2017-05-19T05:06:07.625Z,19.64
2017-05-19T05:09:02.580Z,19.79
2017-05-19T05:14:52.670Z,20.11
2017-05-19T05:17:47.559Z,20.26
2017-05-19T05:20:42.574Z,20.41
2017-05-19T05:23:37.758Z,20.56
2017-05-19T05:29:27.926Z,20.86
2017-05-19T05:32:23.089Z,21.00
2017-05-19T05:35:18.080Z,21.16
2017-05-19T05:38:13.215Z,21.32
2017-05-19T05:41:08.321Z,21.47
2017-05-19T05:44:03.447Z,21.61
2017-05-19T05:46:58.387Z,21.75
2017-05-19T05:49:53.537Z,21.88
2017-05-19T05:52:48.533Z,22.02
2017-05-19T05:55:43.700Z,22.13
2017-05-19T05:58:38.890Z,22.25
2017-05-19T06:01:33.973Z,22.36
2017-05-19T06:04:29.035Z,22.50
2017-05-19T06:07:24.134Z,22.64
2017-05-19T06:10:19.257Z,22.77
2017-05-19T06:13:14.380Z,22.89
2017-05-19T06:16:09.482Z,23.01
2017-05-19T06:19:04.612Z,23.12
2017-05-19T06:21:59.765Z,23.25
2017-05-19T06:24:54.814Z,23.40
2017-05-19T06:27:50.098Z,23.51
2017-05-19T06:30:45.134Z,23.67
2017-05-19T06:33:40.372Z,23.80
2017-05-19T06:36:35.546Z,23.94
2017-05-19T06:39:30.698Z,24.09
2017-05-19T06:42:25.845Z,24.19
2017-05-19T06:45:21.081Z,24.31
2017-05-19T06:48:16.315Z,24.44
2017-05-19T06:51:11.528Z,24.54
2017-05-19T06:57:01.837Z,24.78
2017-05-19T06:59:57.071Z,24.93
2017-05-19T07:02:52.396Z,25.06
2017-05-19T07:05:47.581Z,25.24
2017-05-19T07:08:42.826Z,25.39
2017-05-19T07:11:38.160Z,25.51
2017-05-19T07:14:33.445Z,25.69
2017-05-19T07:17:28.697Z,25.84
2017-05-19T07:23:19.311Z,26.11
2017-05-19T07:29:09.692Z,26.48
2017-05-19T07:32:04.898Z,26.65
2017-05-19T07:35:00.111Z,26.77
2017-05-19T07:37:55.346Z,26.88
2017-05-19T07:40:50.583Z,27.00
2017-05-19T07:43:45.770Z,27.17
2017-05-19T07:49:36.217Z,27.56
2017-05-19T07:52:31.511Z,27.79
2017-05-19T07:55:26.697Z,28.02
2017-05-19T07:58:22.065Z,28.31
2017-05-19T08:01:17.422Z,28.62
2017-05-19T08:04:12.696Z,28.98
2017-05-19T08:07:08.159Z,29.42
2017-05-19T08:10:03.553Z,30.19
2017-05-19T08:12:58.857Z,30.74
2017-05-19T08:15:54.196Z,31.47
2017-05-19T08:18:49.608Z,32.18
2017-05-19T08:21:45.138Z,33.17
2017-05-19T08:24:40.737Z,34.03
2017-05-19T08:27:36.329Z,34.58
2017-05-19T08:33:27.383Z,35.48
2017-05-19T08:36:22.973Z,35.82
2017-05-19T08:39:18.620Z,36.24
2017-05-19T08:45:09.809Z,36.86
2017-05-19T08:48:05.424Z,36.86
2017-05-19T08:51:01.001Z,37.00
2017-05-19T08:53:56.481Z,36.88
2017-05-19T08:56:51.973Z,36.99
2017-05-19T08:59:47.218Z,37.07
2017-05-19T09:02:42.368Z,36.82
2017-05-19T09:05:37.700Z,36.74
2017-05-19T09:08:33.087Z,36.75
2017-05-19T09:11:28.442Z,36.55
2017-05-19T09:14:23.709Z,36.25
2017-05-19T09:17:19.007Z,35.90
2017-05-19T09:20:14.376Z,35.71
2017-05-19T09:26:04.976Z,35.84
2017-05-19T09:29:00.314Z,35.89
2017-05-19T09:31:55.576Z,36.09
2017-05-19T09:37:46.069Z,36.48
2017-05-19T09:40:41.506Z,36.62
2017-05-19T09:43:36.892Z,36.65
2017-05-19T09:46:32.205Z,36.91
2017-05-19T09:49:27.623Z,37.12
2017-05-19T09:52:23.101Z,37.17
2017-05-19T09:55:18.520Z,37.20
2017-05-19T10:01:09.535Z,37.21
2017-05-19T10:04:05.063Z,37.37
2017-05-19T10:07:00.541Z,37.50
2017-05-19T10:09:55.983Z,37.46
2017-05-19T10:12:51.517Z,37.39
2017-05-19T10:15:46.976Z,37.54
2017-05-19T10:18:42.547Z,37.67
2017-05-19T10:21:38.041Z,37.82
2017-05-19T10:24:33.526Z,37.84
2017-05-19T10:27:29.090Z,37.63
2017-05-19T10:30:24.530Z,37.28
2017-05-19T10:33:19.988Z,37.03
2017-05-19T10:36:15.437Z,36.90
2017-05-19T10:39:10.765Z,36.64
2017-05-19T10:42:06.131Z,36.13
2017-05-19T10:45:01.511Z,35.58
2017-05-19T10:47:56.715Z,35.11
2017-05-19T10:50:51.982Z,34.78
2017-05-19T10:53:47.269Z,34.47
2017-05-19T10:56:42.614Z,34.22
2017-05-19T10:59:37.939Z,33.90
2017-05-19T11:02:33.192Z,33.62
2017-05-19T11:05:28.460Z,33.24
2017-05-19T11:08:23.798Z,32.95
2017-05-19T11:11:19.103Z,32.67
2017-05-19T11:14:14.450Z,32.47
2017-05-19T11:17:09.918Z,32.21
2017-05-19T11:20:05.307Z,31.93
2017-05-19T11:23:00.647Z,31.73
2017-05-19T11:25:55.970Z,31.49
2017-05-19T11:28:51.387Z,31.32
2017-05-19T11:34:42.058Z,31.08
2017-05-19T11:37:37.537Z,31.02
2017-05-19T11:40:32.959Z,30.91
2017-05-19T11:43:28.185Z,30.79
2017-05-19T11:46:23.605Z,30.67
2017-05-19T11:49:18.905Z,30.63
2017-05-19T11:55:09.919Z,30.46
2017-05-19T11:58:05.359Z,30.33
2017-05-19T12:01:00.775Z,30.23
2017-05-19T12:03:56.261Z,30.18
2017-05-19T12:06:51.602Z,30.14
2017-05-19T12:09:47.047Z,30.11
2017-05-19T12:12:42.352Z,30.03
2017-05-19T12:15:37.766Z,29.94
2017-05-19T12:18:33.194Z,29.89
2017-05-19T12:21:28.580Z,29.81
2017-05-19T12:24:23.895Z,29.76
2017-05-19T12:27:19.321Z,29.73
2017-05-19T12:33:10.191Z,29.73
2017-05-19T12:36:05.607Z,29.73
2017-05-19T12:39:01.050Z,29.71
2017-05-19T12:41:56.420Z,29.70
2017-05-19T12:47:47.235Z,29.71
2017-05-19T12:50:42.511Z,29.70
2017-05-19T12:53:38.032Z,29.72
2017-05-19T12:56:33.453Z,29.73
2017-05-19T12:59:28.823Z,29.71
2017-05-19T13:05:19.446Z,29.70
2017-05-19T13:08:14.887Z,29.70
2017-05-19T13:11:10.342Z,29.69
2017-05-19T13:14:05.571Z,29.69
2017-05-19T13:17:00.990Z,29.68
2017-05-19T13:19:56.308Z,29.68
2017-05-19T13:22:51.733Z,29.70
2017-05-19T13:25:46.969Z,29.72
2017-05-19T13:28:42.381Z,29.74
2017-05-19T13:31:37.794Z,29.75
2017-05-19T13:34:33.230Z,29.76
2017-05-19T13:37:28.500Z,29.75
2017-05-19T13:40:23.780Z,29.76
2017-05-19T13:43:19.020Z,29.76
2017-05-19T13:46:14.190Z,29.74
2017-05-19T13:49:09.587Z,29.74
2017-05-19T13:52:04.847Z,29.74
2017-05-19T13:54:59.968Z,29.72
2017-05-19T13:57:55.297Z,29.71
2017-05-19T14:00:50.443Z,29.69
2017-05-19T14:03:45.642Z,29.68
2017-05-19T14:06:40.745Z,29.65
2017-05-19T14:09:35.852Z,29.65
2017-05-19T14:12:31.088Z,29.65
2017-05-19T14:15:26.413Z,29.69
2017-05-19T14:18:21.670Z,29.71
2017-05-19T14:21:16.882Z,29.75
2017-05-19T14:24:11.997Z,29.77
2017-05-19T14:27:07.210Z,29.79
2017-05-19T14:30:02.341Z,29.82
2017-05-19T14:32:57.604Z,29.84
2017-05-19T14:35:52.936Z,29.84
2017-05-19T14:38:48.348Z,29.85
2017-05-19T14:41:43.780Z,29.85
2017-05-19T14:44:39.106Z,29.84
2017-05-19T14:47:34.332Z,29.82
2017-05-19T14:50:29.707Z,29.80
2017-05-19T14:53:24.891Z,29.78
2017-05-19T14:56:20.205Z,29.76
2017-05-19T14:59:15.446Z,29.76
2017-05-19T15:02:10.728Z,29.76
2017-05-19T15:05:05.951Z,29.76
2017-05-19T15:08:01.230Z,29.76
2017-05-19T15:10:56.536Z,29.76
2017-05-19T15:13:51.926Z,29.76
2017-05-19T15:16:47.169Z,29.76
2017-05-19T15:19:42.436Z,29.78
2017-05-19T15:22:37.589Z,29.79
2017-05-19T15:25:32.870Z,29.80
2017-05-19T15:28:28.055Z,29.79
2017-05-19T15:31:23.261Z,29.77
2017-05-19T15:34:18.374Z,29.75
2017-05-19T15:37:13.591Z,29.74
2017-05-19T15:40:08.906Z,29.74
2017-05-19T15:43:04.213Z,29.73
2017-05-19T15:45:59.521Z,29.73
2017-05-19T15:48:54.835Z,29.74
2017-05-19T15:51:50.137Z,29.72
2017-05-19T15:54:45.392Z,29.71
2017-05-19T15:57:40.684Z,29.66
2017-05-19T16:00:35.994Z,29.63
2017-05-19T16:03:31.333Z,29.58
2017-05-19T16:06:26.702Z,29.55
2017-05-19T16:09:21.811Z,29.53
2017-05-19T16:12:17.091Z,29.50
2017-05-19T16:15:12.409Z,29.49
2017-05-19T16:21:03.057Z,29.43
2017-05-19T16:23:58.259Z,29.39
2017-05-19T16:26:53.593Z,29.36
2017-05-19T16:29:49.160Z,29.33
2017-05-19T16:32:44.340Z,29.30
2017-05-19T16:38:34.733Z,29.25
2017-05-19T16:41:30.016Z,29.21
2017-05-19T16:44:25.345Z,29.18
2017-05-19T16:47:20.482Z,29.15
2017-05-19T16:50:15.625Z,29.13
2017-05-19T16:56:05.923Z,29.07
2017-05-19T17:01:56.291Z,29.02
2017-05-19T17:04:51.380Z,29.00
2017-05-19T17:07:46.575Z,28.97
2017-05-19T17:10:41.802Z,28.94
2017-05-19T17:13:36.888Z,28.91
2017-05-19T17:16:32.002Z,28.90
2017-05-19T17:19:27.103Z,28.87
2017-05-19T17:22:22.185Z,28.85
2017-05-19T17:25:17.329Z,28.82
2017-05-19T17:28:12.392Z,28.75
2017-05-19T17:31:07.607Z,28.66
2017-05-19T17:34:02.872Z,28.57
2017-05-19T17:36:57.933Z,28.51
2017-05-19T17:39:53.136Z,28.45
2017-05-19T17:42:48.340Z,28.36
2017-05-19T17:45:43.673Z,28.25
2017-05-19T17:48:39.010Z,28.18
2017-05-19T17:51:34.173Z,28.11
2017-05-19T17:54:29.357Z,28.05
2017-05-19T17:57:24.614Z,27.97
2017-05-19T18:00:19.828Z,27.90
2017-05-19T18:03:15.026Z,27.81
2017-05-19T18:06:10.391Z,27.72
2017-05-19T18:09:05.554Z,27.67
2017-05-19T18:12:00.807Z,27.61
2017-05-19T18:14:56.080Z,27.53
2017-05-19T18:17:51.541Z,27.46
2017-05-19T18:20:46.812Z,27.40
2017-05-19T18:23:42.095Z,27.36
2017-05-19T18:26:37.301Z,27.30
2017-05-19T18:29:32.498Z,27.27
2017-05-19T18:32:27.842Z,27.21
2017-05-19T18:35:23.001Z,27.19
2017-05-19T18:41:13.615Z,27.14
2017-05-19T18:47:04.289Z,27.07
2017-05-19T18:49:59.637Z,27.03
2017-05-19T18:52:54.895Z,26.99
2017-05-19T18:58:45.437Z,26.92
2017-05-19T19:01:40.734Z,26.88
2017-05-19T19:04:35.921Z,26.84
2017-05-19T19:07:31.232Z,26.82
2017-05-19T19:10:26.466Z,26.78
2017-05-19T19:13:21.824Z,26.82
2017-05-19T19:16:17.050Z,26.84
2017-05-19T19:19:12.251Z,26.83
2017-05-19T19:22:07.557Z,26.80
2017-05-19T19:25:02.829Z,26.77
2017-05-19T19:27:58.145Z,26.74
2017-05-19T19:30:53.472Z,26.70
2017-05-19T19:33:48.745Z,26.67
2017-05-19T19:36:43.945Z,26.63
2017-05-19T19:39:39.084Z,26.58
2017-05-19T19:42:34.458Z,26.53
2017-05-19T19:45:29.726Z,26.48
2017-05-19T19:48:25.008Z,26.43
2017-05-19T19:51:20.280Z,26.37
2017-05-19T19:54:15.578Z,26.32
2017-05-19T19:57:10.818Z,26.27
2017-05-19T20:00:06.063Z,26.21
2017-05-19T20:03:01.390Z,26.15
2017-05-19T20:05:56.628Z,26.10
2017-05-19T20:08:51.937Z,26.05
2017-05-19T20:11:47.123Z,26.02
2017-05-19T20:14:42.428Z,25.97
2017-05-19T20:17:37.717Z,25.93
2017-05-19T20:20:32.933Z,25.87
2017-05-19T20:23:28.138Z,25.80
2017-05-19T20:26:23.368Z,25.74
2017-05-19T20:29:18.621Z,25.69
2017-05-19T20:32:13.895Z,25.63
2017-05-19T20:35:09.123Z,25.58
2017-05-19T20:38:04.264Z,25.52
2017-05-19T20:40:59.350Z,25.46
2017-05-19T20:43:54.669Z,25.41
2017-05-19T20:46:49.771Z,25.38
2017-05-19T20:52:40.433Z,25.32
2017-05-19T20:55:35.665Z,25.29
2017-05-19T20:58:30.944Z,25.26
2017-05-19T21:01:26.101Z,25.23
2017-05-19T21:04:21.491Z,25.20
2017-05-19T21:07:16.848Z,25.15
2017-05-19T21:13:07.046Z,25.13
2017-05-19T21:18:57.561Z,25.03
2017-05-19T21:21:52.747Z,24.95
2017-05-19T21:24:47.947Z,24.88
2017-05-19T21:30:38.682Z,24.78
2017-05-19T21:33:33.909Z,24.73
2017-05-19T21:36:29.046Z,24.68
2017-05-19T21:39:24.287Z,24.60
2017-05-19T21:42:19.484Z,24.54
2017-05-19T21:45:14.689Z,24.50
2017-05-19T21:48:09.933Z,24.46
2017-05-19T21:51:05.077Z,24.39
2017-05-19T21:54:00.293Z,24.31
2017-05-19T21:56:55.526Z,24.27
2017-05-19T21:59:50.706Z,24.23
2017-05-19T22:02:45.906Z,24.18
2017-05-19T22:05:41.083Z,24.11
2017-05-19T22:08:36.369Z,24.02
2017-05-19T22:11:31.600Z,23.95
2017-05-19T22:14:26.753Z,23.89
2017-05-19T22:17:21.893Z,23.83
2017-05-19T22:20:17.067Z,23.76
2017-05-19T22:23:12.179Z,23.70
2017-05-19T22:26:07.342Z,23.61
2017-05-19T22:29:02.435Z,23.51
2017-05-19T22:31:57.593Z,23.41
2017-05-19T22:34:52.645Z,23.34
2017-05-19T22:37:47.784Z,23.27
2017-05-19T22:43:38.287Z,23.12
2017-05-19T22:46:33.362Z,23.03
2017-05-19T22:49:28.575Z,22.95
2017-05-19T22:52:23.742Z,22.90
2017-05-19T22:55:18.750Z,22.85
2017-05-19T22:58:13.942Z,22.81
2017-05-19T23:01:08.996Z,22.74
2017-05-19T23:04:04.094Z,22.65
2017-05-19T23:06:59.152Z,22.56
2017-05-19T23:09:54.316Z,22.47
2017-05-19T23:12:49.483Z,22.41
2017-05-19T23:15:44.582Z,22.30
2017-05-19T23:18:39.645Z,22.21
2017-05-19T23:21:34.734Z,22.11
2017-05-19T23:24:29.815Z,22.04
2017-05-19T23:27:24.884Z,21.95
2017-05-19T23:30:19.960Z,21.87
2017-05-19T23:33:15.126Z,21.83
2017-05-19T23:36:10.107Z,21.79
2017-05-19T23:39:05.452Z,21.75
2017-05-19T23:42:00.390Z,21.67
2017-05-19T23:44:55.439Z,21.62
2017-05-19T23:47:50.516Z,21.56
2017-05-19T23:50:45.490Z,21.51
2017-05-19T23:53:40.463Z,21.46
2017-05-19T23:56:35.603Z,21.40
2017-05-19T23:59:30.573Z,21.34
